Flight Track Log - Related Links

Times and Time Zones

All times are in EDT time to prevent confusion due to time zone crossing. See the WJA700 flight status page for this flight to view local times or setup timezone preferences in your user account.

Time Position Orientation Groundspeed Altitude Reporting Facility
EDT Latitude Longitude Course Direction KTS MPH feet Rate Location/Type
Thu 10:11:55 AM 49.0510 -123.1820 90° East 302 348 10,100  Level FlightAware ADS-B
Thu 10:12:00 AM 49.1500 -121.9855 90° East  Level FlightAware Approximate
Thu 10:12:37 AM 49.0400 -123.0830 100° East 346 398 11,200  Level FlightAware ADS-B
Thu 10:13:33 AM 49.0360 -122.9470 93° East 369 425 13,500 2,625 Climbing FlightAware ADS-B
Thu 10:14:13 AM 49.0370 -122.8430 89° East 378 435 15,400 2,857 Climbing FlightAware ADS-B
Thu 10:14:57 AM 49.0380 -122.7240 89° East 389 448 17,500 2,550 Climbing FlightAware ADS-B
Thu 10:15:33 AM 49.0430 -122.6230 86° East 405 466 18,800 2,267 Climbing FlightAware ADS-B
Thu 10:16:27 AM 49.0540 -122.4680 84° East 420 483 20,900 2,400 Climbing FlightAware ADS-B
Thu 10:17:03 AM 49.0620 -122.3550 84° East 428 493 22,400 1,615 Climbing FlightAware ADS-B
Thu 10:17:45 AM 49.0700 -122.2480 83° East 430 495 23,000 2,143 Climbing FlightAware ADS-B
Thu 10:18:27 AM 49.0800 -122.1070 84° East 441 507 25,400 2,780 Climbing FlightAware ADS-B
Thu 10:19:07 AM 49.0890 -121.9750 84° East 446 513 26,800 1,926 Climbing FlightAware ADS-B
Thu 10:19:48 AM 49.0980 -121.8480 84° East 453 521 28,000 1,674 Climbing FlightAware ADS-B
Thu 10:20:33 AM 49.1080 -121.7030 84° East 462 532 29,200 1,481 Climbing FlightAware ADS-B
Thu 10:21:09 AM 49.1170 -121.5820 83° East 470 541 30,000 1,244 Climbing FlightAware ADS-B
Thu 10:21:55 AM 49.1280 -121.4320 84° East 481 554 30,900 1,333 Climbing FlightAware ADS-B
Thu 10:22:39 AM 49.1400 -121.2820 83° East 484 557 32,000 1,500 Climbing FlightAware ADS-B
Thu 10:23:15 AM 49.1500 -121.1590 83° East 485 558 32,900 1,286 Climbing FlightAware ADS-B
Thu 10:24:03 AM 49.1680 -120.9980 80° East 490 564 33,800 1,214 Climbing FlightAware ADS-B
Thu 10:24:39 AM 49.1840 -120.8740 79° East 493 567 34,600 1,233 Climbing FlightAware ADS-B
Thu 10:25:16 AM 49.1833 -120.7333 79° East 490 564 35,300 1,102 Climbing Vancouver Center
Thu 10:26:17 AM 49.2167 -120.5500 74° East 490 564 36,400 800 Climbing Vancouver Center
Thu 10:27:16 AM 49.2333 -120.3167 84° East 490 564 36,900 303 Climbing Vancouver Center
Thu 10:28:16 AM 49.2667 -120.1167 76° East 500 575 37,000 50 Climbing Vancouver Center
Thu 10:29:16 AM 49.2833 -119.9000 83° East 500 575 37,000  Level Vancouver Center
Thu 10:30:16 AM 49.3000 -119.7000 83° East 500 575 37,000  Level Vancouver Center
Thu 10:31:16 AM 49.3167 -119.5000 83° East 490 564 37,000  Level Vancouver Center
Thu 10:32:17 AM 49.3500 -119.2833 77° East 490 564 37,000  Level Vancouver Center
Thu 10:33:16 AM 49.3667 -119.0833 83° East 490 564 37,000  Level Vancouver Center
Thu 10:34:16 AM 49.4000 -118.8667 77° East 490 564 37,000  Level Vancouver Center
Thu 10:35:16 AM 49.4167 -118.6667 83° East 490 564 37,000  Level Vancouver Center
Thu 10:36:16 AM 49.4333 -118.4500 83° East 490 564 37,000  Level Vancouver Center
Thu 10:42:28 AM 49.5790 -117.1820 83° East 499 574 37,000  Level FlightAware ADS-B
Thu 10:43:08 AM 49.5930 -117.0330 82° East 499 574 37,000  Level FlightAware ADS-B
Thu 10:43:48 AM 49.6050 -116.8970 82° East 500 575 37,000  Level FlightAware ADS-B
Thu 10:44:48 AM 49.6230 -116.6860 82° East 500 575 37,000  Level FlightAware ADS-B
Thu 10:45:33 AM 49.6370 -116.5230 82° East 501 577 37,000  Level FlightAware ADS-B
Thu 10:46:14 AM 49.6490 -116.3820 82° East 500 575 37,000  Level FlightAware ADS-B
Thu 10:46:49 AM 49.6590 -116.2560 83° East 500 575 37,000  Level FlightAware ADS-B
Thu 10:47:34 AM 49.6720 -116.0990 83° East 498 573 37,000  Level FlightAware ADS-B
Thu 10:48:14 AM 49.6830 -115.9530 83° East 498 573 37,000  Level FlightAware ADS-B
Thu 10:48:49 AM 49.6930 -115.8330 83° East 498 573 37,000  Level FlightAware ADS-B
Thu 10:49:35 AM 49.7050 -115.6730 83° East 497 572 37,000  Level FlightAware ADS-B
Thu 10:50:14 AM 49.7150 -115.5380 83° East 498 573 37,000  Level FlightAware ADS-B
Thu 10:50:57 AM 49.7270 -115.3880 83° East 501 577 37,000  Level FlightAware ADS-B
Thu 10:51:35 AM 49.7370 -115.2480 84° East 501 577 37,000  Level FlightAware ADS-B
Thu 10:52:20 AM 49.7490 -115.0870 83° East 500 575 37,000  Level FlightAware ADS-B
Thu 10:53:05 AM 49.7600 -114.9270 84° East 498 573 37,000  Level FlightAware ADS-B
Thu 10:53:45 AM 49.7700 -114.7830 84° East 499 574 37,000  Level FlightAware ADS-B
Thu 10:54:40 AM 49.7830 -114.5920 84° East 500 575 37,000  Level FlightAware ADS-B
Thu 10:55:20 AM 49.7930 -114.4460 84° East 500 575 37,000  Level FlightAware ADS-B
Thu 10:56:05 AM 49.8030 -114.2870 84° East 503 579 37,000  Level FlightAware ADS-B
Thu 10:56:51 AM 49.8140 -114.1220 84° East 507 583 37,000  Level FlightAware ADS-B
Thu 10:57:30 AM 49.8230 -113.9810 84° East 507 583 37,000  Level FlightAware ADS-B
Thu 10:58:16 AM 49.8330 -113.8150 85° East 510 587 37,000  Level FlightAware ADS-B
Thu 10:58:57 AM 49.8420 -113.6690 84° East 512 589 37,000  Level FlightAware ADS-B
Thu 10:59:36 AM 49.8500 -113.5230 85° East 512 589 37,000  Level FlightAware ADS-B
Thu 11:00:41 AM 49.8630 -113.2870 85° East 513 590 37,000  Level FlightAware ADS-B
Thu 11:01:21 AM 49.8720 -113.1380 85° East 514 592 37,000  Level FlightAware ADS-B
Thu 11:02:01 AM 49.8790 -112.9990 85° East 513 590 37,000  Level FlightAware ADS-B
Thu 11:02:36 AM 49.8860 -112.8640 85° East 513 590 37,000  Level FlightAware ADS-B
Thu 11:03:17 AM 49.8940 -112.7150 85° East 512 589 37,000  Level FlightAware ADS-B
Thu 11:04:02 AM 49.9010 -112.5660 86° East 513 590 37,000  Level FlightAware ADS-B
Thu 11:04:47 AM 49.9100 -112.3860 85° East 514 592 37,000  Level FlightAware ADS-B
Thu 11:05:25 AM 49.9170 -112.2630 85° East 516 594 37,000  Level FlightAware ADS-B
Thu 11:06:07 AM 49.9240 -112.1070 86° East 516 594 37,000  Level FlightAware ADS-B
Thu 11:06:47 AM 49.9300 -111.9440 87° East 516 594 37,000  Level FlightAware ADS-B
Thu 11:07:32 AM 49.9380 -111.7770 86° East 517 595 37,000  Level FlightAware ADS-B
Thu 11:08:12 AM 49.9440 -111.6320 86° East 516 594 37,000  Level FlightAware ADS-B
Thu 11:08:53 AM 49.9500 -111.4890 86° East 514 592 37,000  Level FlightAware ADS-B
Thu 11:09:42 AM 49.9570 -111.3030 87° East 513 590 37,000  Level FlightAware ADS-B
Thu 11:10:18 AM 49.9620 -111.1750 86° East 513 590 37,000  Level FlightAware ADS-B
Thu 11:10:58 AM 49.9670 -111.0200 87° East 512 589 37,000  Level FlightAware ADS-B
Thu 11:12:31 AM 49.9770 -110.7580 87° East 513 590 37,000  Level FlightAware ADS-B
Thu 11:13:08 AM 49.9810 -110.6420 87° East 513 590 37,000  Level FlightAware ADS-B
Thu 11:13:54 AM 49.9890 -110.3810 87° East 510 587 37,000  Level FlightAware ADS-B
Thu 11:14:44 AM 49.9930 -110.2110 88° East 510 587 37,000  Level FlightAware ADS-B
Thu 11:15:43 AM 49.9970 -110.0270 88° East 510 587 37,000  Level FlightAware ADS-B
Thu 11:17:27 AM 50.0160 -109.6100 86° East 37,000  Level FlightAware ADS-B
Thu 11:18:21 AM 50.0240 -109.4060 86° East 510 587 37,000  Level FlightAware ADS-B
Thu 11:19:12 AM 50.0310 -109.2200 87° East 509 586 37,000  Level FlightAware ADS-B
Thu 11:19:48 AM 50.0360 -109.0840 87° East 512 589 37,000  Level FlightAware ADS-B
Thu 11:20:33 AM 50.0420 -108.9200 87° East 513 590 37,000  Level FlightAware ADS-B
Thu 11:21:14 AM 50.0460 -108.7910 87° East 514 592 37,000  Level FlightAware ADS-B
Thu 11:21:58 AM 50.0500 -108.6350 88° East 519 597 37,000  Level FlightAware ADS-B
Thu 11:22:34 AM 50.0530 -108.5200 88° East 519 597 37,000  Level FlightAware ADS-B
Thu 11:23:18 AM 50.0600 -108.3200 87° East 37,000  Level FlightAware ADS-B
Thu 11:24:37 AM 50.0680 -108.0280 87° East 522 601 37,000  Level FlightAware ADS-B
Thu 11:25:23 AM 50.0730 -107.8660 87° East 521 600 37,000  Level FlightAware ADS-B
Thu 11:26:46 AM 50.0790 -107.5970 88° East 521 600 37,000  Level FlightAware ADS-B
Thu 11:27:25 AM 50.0830 -107.3860 88° East 521 600 37,000  Level FlightAware ADS-B
Thu 11:28:07 AM 50.0860 -107.2420 88° East 520 598 37,000  Level FlightAware ADS-B
Thu 11:29:05 AM 50.0900 -107.0320 88° East 520 598 37,000  Level FlightAware ADS-B
Thu 11:30:02 AM 50.0890 -107.0780 268° West 519 597 37,000  Level FlightAware ADS-B
Thu 11:30:51 AM 50.0920 -106.8910 88° East 519 597 37,000  Level FlightAware ADS-B
Thu 11:31:31 AM 50.0940 -106.7620 89° East 519 597 37,000  Level FlightAware ADS-B
Thu 11:32:08 AM 50.0960 -106.6170 89° East 520 598 37,000  Level FlightAware ADS-B
Thu 11:32:53 AM 50.0990 -106.4370 88° East 521 600 37,000  Level FlightAware ADS-B
Thu 11:33:31 AM 50.1010 -106.2730 89° East 522 601 37,000  Level FlightAware ADS-B
Thu 11:34:28 AM 50.1030 -106.0670 89° East 521 600 37,000  Level FlightAware ADS-B
Thu 11:35:42 AM 50.1040 -105.8180 90° East 522 601 37,000  Level FlightAware ADS-B
Thu 11:36:28 AM 50.1050 -105.6660 89° East 523 602 37,000  Level FlightAware ADS-B
Thu 11:37:29 AM 50.1070 -105.4490 89° East 524 603 37,000  Level FlightAware ADS-B
Thu 11:38:23 AM 50.1070 -105.2380 90° East 526 605 37,000  Level FlightAware ADS-B
Thu 11:39:13 AM 50.1070 -105.0860 90° East 526 605 37,000  Level FlightAware ADS-B
Thu 11:39:55 AM 50.1080 -104.9370 89° East 523 602 37,000  Level FlightAware ADS-B
Thu 11:40:34 AM 50.1080 -104.8720 90° East 523 602 37,000  Level FlightAware ADS-B
Thu 11:41:15 AM 50.1070 -104.7440 91° East 523 602 37,000  Level FlightAware ADS-B
Thu 11:42:08 AM 50.1070 -104.5780 90° East 524 603 37,000  Level FlightAware ADS-B
Thu 11:42:48 AM 50.1060 -104.4130 90° East 523 602 37,000  Level FlightAware ADS-B
Thu 11:43:40 AM 50.1050 -104.2060 90° East 524 603 37,000  Level FlightAware ADS-B
Thu 11:44:51 AM 50.1040 -104.0140 90° East 524 603 37,000  Level FlightAware ADS-B
Thu 11:45:31 AM 50.1020 -103.8310 91° East 526 605 37,000  Level FlightAware ADS-B
Thu 11:46:29 AM 50.1010 -103.6920 91° East 525 604 37,000  Level FlightAware ADS-B
Thu 11:47:05 AM 50.1010 -103.5760 90° East 525 604 37,000  Level FlightAware ADS-B
Thu 11:48:07 AM 50.1010 -103.3770 90° East 525 604 37,000 785 Level FlightAware ADS-B
Thu 11:48:52 AM 50.0910 -103.0300 92° East 543 625 38,400 1,154 Climbing FlightAware ADS-B
Thu 11:49:51 AM 50.0760 -102.2900 92° East 534 615 39,000 375 Climbing FlightAware ADS-B
Thu 11:50:28 AM 50.0730 -102.1620 92° East 534 615 39,000  Level FlightAware ADS-B
Thu 11:51:17 AM 50.0760 -102.3100 272° West 534 615 39,000  Level FlightAware ADS-B
Thu 11:52:03 AM 50.0740 -102.2140 92° East 534 615 39,000  Level FlightAware ADS-B
Thu 11:52:42 AM 50.0590 -101.6520 92° East 530 610 39,000  Level FlightAware ADS-B
Thu 11:53:41 AM 50.0520 -101.4160 93° East 529 609 39,000  Level FlightAware ADS-B
Thu 11:54:21 AM 50.0480 -101.2620 92° East 529 609 39,000  Level FlightAware ADS-B
Thu 11:55:03 AM 50.0420 -101.1040 93° East 529 609 39,000  Level FlightAware ADS-B
Thu 11:55:36 AM 50.0380 -100.9790 93° East 528 608 39,000  Level FlightAware ADS-B
Thu 11:56:23 AM 50.0320 -100.8010 93° East 529 609 39,000  Level FlightAware ADS-B
Thu 11:57:03 AM 50.0260 -100.6500 93° East 528 608 39,000  Level FlightAware ADS-B
Thu 11:57:47 AM 50.0200 -100.4810 93° East 529 609 39,000  Level FlightAware ADS-B
Thu 11:58:31 AM 50.0130 -100.3150 94° East 529 609 39,000  Level FlightAware ADS-B
Thu 11:59:11 AM 50.0070 -100.1610 93° East 529 609 39,000  Level FlightAware ADS-B
Thu 11:59:55 AM 49.9990 -99.9960 94° East 527 606 39,000  Level FlightAware ADS-B
Thu 12:00:31 PM 49.9840 -99.8650 100° East 526 605 39,000  Level FlightAware ADS-B
Thu 12:01:15 PM 49.9660 -99.7080 100° East 525 604 39,000  Level FlightAware ADS-B
Thu 12:01:51 PM 49.9490 -99.5670 101° East 523 602 39,000  Level FlightAware ADS-B
Thu 12:02:35 PM 49.9300 -99.4050 100° East 522 601 39,000  Level FlightAware ADS-B
Thu 12:03:15 PM 49.9120 -99.2590 101° East 523 602 39,000  Level FlightAware ADS-B
Thu 12:03:59 PM 49.8930 -99.0980 100° East 522 601 39,000  Level FlightAware ADS-B
Thu 12:04:39 PM 49.8740 -98.9510 101° East 522 601 39,000  Level FlightAware ADS-B
Thu 12:05:21 PM 49.8550 -98.7960 101° East 522 601 39,000  Level FlightAware ADS-B
Thu 12:06:05 PM 49.8350 -98.6380 101° East 523 602 39,000  Level FlightAware ADS-B
Thu 12:06:45 PM 49.8160 -98.4880 101° East 524 603 39,000  Level FlightAware ADS-B
Thu 12:07:29 PM 49.7950 -98.3270 101° East 524 603 39,000  Level FlightAware ADS-B
Thu 12:08:11 PM 49.7750 -98.1740 101° East 524 603 39,000  Level FlightAware ADS-B
Thu 12:08:47 PM 49.7570 -98.0420 102° East 523 602 39,000  Level FlightAware ADS-B
Thu 12:09:52 PM 49.7290 -97.8230 101° East 523 602 39,000  Level FlightAware ADS-B
Thu 12:10:28 PM 49.7140 -97.7100 102° East 523 602 39,000  Level FlightAware ADS-B
Thu 12:10:52 PM 49.7050 -97.6350 100° East 523 602 39,000  Level FlightAware ADS-B
Thu 12:11:57 PM 49.6790 -97.4320 101° East 523 602 39,000  Level FlightAware ADS-B
Thu 12:13:01 PM 49.6540 -97.2330 101° East 523 602 39,000  Level FlightAware ADS-B
Thu 12:13:37 PM 49.6400 -97.1210 101° East 523 602 39,000  Level FlightAware ADS-B
Thu 12:14:25 PM 49.6210 -96.9710 101° East 523 602 39,000  Level FlightAware ADS-B
Thu 12:15:01 PM 49.6070 -96.8590 101° East 523 602 39,000  Level FlightAware ADS-B
Thu 12:16:02 PM 49.5830 -96.6690 101° East 523 602 39,000  Level FlightAware ADS-B
Thu 12:16:38 PM 49.5690 -96.5570 101° East 523 602 39,000  Level FlightAware ADS-B
Thu 12:17:16 PM 49.5540 -96.4380 101° East 523 602 39,000  Level FlightAware ADS-B
Thu 12:18:04 PM 49.4760 -96.0600 107° East 519 597 39,000  Level FlightAware ADS-B
Thu 12:18:41 PM 49.4600 -95.9470 102° East 519 597 39,000  Level FlightAware ADS-B
Thu 12:19:39 PM 49.4360 -95.7690 102° East 519 597 39,000  Level FlightAware ADS-B
Thu 12:22:34 PM 49.3390 -95.1640 104° East 524 603 39,000  Level FlightAware ADS-B
Thu 12:23:22 PM 49.3170 -95.0160 103° East 524 603 39,000  Level FlightAware ADS-B
Thu 12:24:00 PM 49.2990 -94.8990 103° East 524 603 39,000  Level FlightAware ADS-B
Thu 12:24:48 PM 49.2770 -94.7520 103° East 524 603 39,000  Level FlightAware ADS-B
Thu 12:25:10 PM 49.2660 -94.6840 104° East 524 603 39,000  Level FlightAware ADS-B
Thu 12:30:04 PM 49.0530 -93.4870 105° East 512 589 39,000  Level FlightAware ADS-B
Thu 12:30:40 PM 49.0300 -93.3610 106° East 510 587 39,000  Level FlightAware ADS-B
Thu 12:31:28 PM 49.0000 -93.1920 105° East 508 585 39,000  Level FlightAware ADS-B
Thu 12:32:23 PM 48.9660 -93.0050 105° East 508 585 39,000  Level FlightAware ADS-B
Thu 12:33:04 PM 48.9400 -92.8610 105° East 507 583 39,000  Level FlightAware ADS-B
Thu 12:34:00 PM 48.9050 -92.6690 105° East 505 581 39,000  Level FlightAware ADS-B
Thu 12:34:40 PM 48.8800 -92.5370 106° East 502 578 39,000  Level FlightAware ADS-B
Thu 12:35:24 PM 48.8520 -92.3860 106° East 500 575 39,000  Level FlightAware ADS-B
Thu 12:36:06 PM 48.8260 -92.2510 106° East 498 573 39,000  Level FlightAware ADS-B
Thu 12:36:43 PM 48.8030 -92.1270 106° East 498 573 39,000  Level FlightAware ADS-B
Thu 12:37:32 PM 48.7710 -91.9590 106° East 500 575 39,000  Level FlightAware ADS-B
Thu 12:38:14 PM 48.7430 -91.8160 106° East 500 575 39,000  Level FlightAware ADS-B
Thu 12:38:54 PM 48.7180 -91.6840 106° East 503 579 39,000  Level FlightAware ADS-B
Thu 12:39:38 PM 48.6880 -91.5320 107° East 502 578 39,000  Level FlightAware ADS-B
Thu 12:40:15 PM 48.6640 -91.4140 107° East 502 578 39,000  Level FlightAware ADS-B
Thu 12:40:55 PM 48.6370 -91.2770 107° East 502 578 39,000  Level FlightAware ADS-B
Thu 12:41:34 PM 48.6110 -91.1470 107° East 501 577 39,000  Level FlightAware ADS-B
Thu 12:42:16 PM 48.5840 -91.0100 107° East 500 575 39,000  Level FlightAware ADS-B
Thu 12:43:00 PM 48.5540 -90.8610 107° East 497 572 39,000  Level FlightAware ADS-B
Thu 12:43:42 PM 48.5260 -90.7240 107° East 495 570 39,000  Level FlightAware ADS-B
Thu 12:44:23 PM 48.4990 -90.5930 107° East 494 568 39,000  Level FlightAware ADS-B
Thu 12:45:03 PM 48.4720 -90.4610 107° East 496 571 39,000  Level FlightAware ADS-B
Thu 12:45:56 PM 48.4340 -90.2810 108° East 496 571 39,000  Level FlightAware ADS-B
Thu 12:46:35 PM 48.4070 -90.1530 108° East 494 568 39,000  Level FlightAware ADS-B
Thu 12:47:16 PM 48.3780 -90.0160 108° East 494 568 39,000  Level FlightAware ADS-B
Thu 12:48:01 PM 48.3480 -89.8730 107° East 494 568 39,000  Level FlightAware ADS-B
Thu 12:48:42 PM 48.3190 -89.7380 108° East 496 571 39,000  Level FlightAware ADS-B
Thu 12:49:17 PM 48.2950 -89.6250 108° East 495 570 39,000  Level FlightAware ADS-B
Thu 12:50:08 PM 48.2570 -89.4560 109° East 491 565 39,000  Level FlightAware ADS-B
Thu 12:50:42 PM 48.2270 -89.3560 114° Southeast 488 562 39,000  Level FlightAware ADS-B
Thu 12:51:30 PM 48.1840 -89.2240 116° Southeast 489 563 39,000  Level FlightAware ADS-B
Thu 12:52:12 PM 48.1360 -89.0790 116° Southeast 494 568 39,000  Level FlightAware ADS-B
Thu 12:53:12 PM 48.0830 -88.9170 116° Southeast 495 570 39,000  Level FlightAware ADS-B
Thu 12:53:46 PM 48.0540 -88.8280 116° Southeast 495 570 39,000  Level FlightAware ADS-B
Thu 12:54:34 PM 48.0130 -88.7020 116° Southeast 495 570 39,000  Level FlightAware ADS-B
Thu 12:55:08 PM 47.9840 -88.6140 116° Southeast 495 570 39,000  Level FlightAware ADS-B
Thu 12:55:56 PM 47.9430 -88.4880 116° Southeast 495 570 39,000  Level FlightAware ADS-B
Thu 12:56:34 PM 47.9110 -88.3890 116° Southeast 495 570 39,000  Level FlightAware ADS-B
Thu 12:57:22 PM 47.8700 -88.2640 116° Southeast 495 570 39,000  Level FlightAware ADS-B
Thu 12:58:02 PM 47.7770 -88.0110 119° Southeast 496 571 39,000  Level FlightAware ADS-B
Thu 12:59:00 PM 47.7210 -87.8500 117° Southeast 496 571 39,000  Level FlightAware ADS-B
Thu 12:59:34 PM 47.6800 -87.7320 117° Southeast 498 573 39,000  Level FlightAware ADS-B
Thu 01:00:24 PM 47.6360 -87.6030 117° Southeast 498 573 39,000  Level FlightAware ADS-B
Thu 01:01:01 PM 47.6030 -87.5070 117° Southeast 498 573 39,000  Level FlightAware ADS-B
Thu 01:01:35 PM 47.5730 -87.4190 117° Southeast 498 573 39,000  Level FlightAware ADS-B
Thu 01:02:23 PM 47.5300 -87.2950 117° Southeast 498 573 39,000  Level FlightAware ADS-B
Thu 01:02:47 PM 47.5090 -87.2330 117° Southeast 498 573 39,000  Level FlightAware ADS-B
Thu 01:03:35 PM 47.4660 -87.1090 117° Southeast 498 573 39,000  Level FlightAware ADS-B
Thu 01:04:11 PM 47.4340 -87.0160 117° Southeast 498 573 39,000  Level FlightAware ADS-B
Thu 01:04:58 PM 47.3370 -86.7610 119° Southeast 493 567 39,000  Level FlightAware ADS-B
Thu 01:05:38 PM 47.2980 -86.6420 116° Southeast 494 568 39,000  Level FlightAware ADS-B
Thu 01:06:14 PM 47.2610 -86.5320 116° Southeast 495 570 39,000  Level FlightAware ADS-B
Thu 01:07:00 PM 47.2150 -86.3940 116° Southeast 496 571 39,000  Level FlightAware ADS-B
Thu 01:07:36 PM 47.1780 -86.2850 117° Southeast 495 570 39,000  Level FlightAware ADS-B
Thu 01:08:12 PM 47.1410 -86.1760 116° Southeast 493 567 39,000  Level FlightAware ADS-B
Thu 01:08:50 PM 47.1030 -86.0640 116° Southeast 493 567 39,000  Level FlightAware ADS-B
Thu 01:09:34 PM 47.0580 -85.9320 117° Southeast 493 567 39,000  Level FlightAware ADS-B
Thu 01:10:14 PM 47.0170 -85.8140 117° Southeast 491 565 39,000  Level FlightAware ADS-B
Thu 01:10:56 PM 46.9740 -85.6880 117° Southeast 491 565 39,000  Level FlightAware ADS-B
Thu 01:11:36 PM 46.9390 -85.5830 116° Southeast 490 564 39,000  Level FlightAware ADS-B
Thu 01:12:22 PM 46.8860 -85.4370 118° Southeast 484 557 39,000  Level FlightAware ADS-B
Thu 01:13:06 PM 46.8420 -85.3100 117° Southeast 483 556 39,000  Level FlightAware ADS-B
Thu 01:13:50 PM 46.7960 -85.1810 117° Southeast 482 555 39,000  Level FlightAware ADS-B
Thu 01:14:24 PM 46.7630 -85.0860 117° Southeast 480 552 39,000  Level FlightAware ADS-B
Thu 01:15:08 PM 46.7180 -84.9590 117° Southeast 478 550 39,000  Level FlightAware ADS-B
Thu 01:15:50 PM 46.6750 -84.8390 118° Southeast 475 547 39,000  Level FlightAware ADS-B
Thu 01:16:24 PM 46.6400 -84.7420 118° Southeast 474 545 39,000  Level FlightAware ADS-B
Thu 01:17:06 PM 46.5970 -84.6240 118° Southeast 474 545 39,000  Level FlightAware ADS-B
Thu 01:17:51 PM 46.5520 -84.4980 117° Southeast 482 555 39,000  Level FlightAware ADS-B
Thu 01:18:30 PM 46.5110 -84.3850 118° Southeast 484 557 39,000  Level FlightAware ADS-B
Thu 01:19:12 PM 46.4670 -84.2640 118° Southeast 484 557 39,000  Level FlightAware ADS-B
Thu 01:19:52 PM 46.4260 -84.1510 118° Southeast 483 556 39,000  Level FlightAware ADS-B
Thu 01:20:38 PM 46.3770 -84.0190 118° Southeast 480 552 39,000  Level FlightAware ADS-B
Thu 01:21:14 PM 46.3400 -83.9190 118° Southeast 477 549 39,000  Level FlightAware ADS-B
Thu 01:21:52 PM 46.3000 -83.8110 118° Southeast 476 548 39,000  Level FlightAware ADS-B
Thu 01:22:36 PM 46.2550 -83.6880 118° Southeast 473 544 39,000  Level FlightAware ADS-B
Thu 01:23:15 PM 46.2140 -83.5810 119° Southeast 471 542 39,000  Level FlightAware ADS-B
Thu 01:23:55 PM 46.1730 -83.4710 118° Southeast 470 541 39,000  Level FlightAware ADS-B
Thu 01:24:37 PM 46.1300 -83.3560 118° Southeast 469 540 39,000  Level FlightAware ADS-B
Thu 01:25:17 PM 46.0880 -83.2450 119° Southeast 472 543 39,000  Level FlightAware ADS-B
Thu 01:25:53 PM 46.0500 -83.1460 119° Southeast 475 547 39,000  Level FlightAware ADS-B
Thu 01:26:43 PM 45.9990 -83.0100 118° Southeast 474 545 39,000  Level FlightAware ADS-B
Thu 01:27:23 PM 45.9560 -82.9000 119° Southeast 475 547 39,000  Level FlightAware ADS-B
Thu 01:28:05 PM 45.9110 -82.7840 119° Southeast 478 550 39,000  Level FlightAware ADS-B
Thu 01:28:41 PM 45.8720 -82.6830 119° Southeast 481 554 39,000  Level FlightAware ADS-B
Thu 01:29:25 PM 45.8190 -82.5630 122° Southeast 480 552 39,000  Level FlightAware ADS-B
Thu 01:30:05 PM 45.7550 -82.4780 137° Southeast 479 551 39,000  Level FlightAware ADS-B
Thu 01:30:41 PM 45.6940 -82.4050 140° Southeast 479 551 39,000  Level FlightAware ADS-B
Thu 01:31:22 PM 45.6260 -82.3250 141° Southeast 481 554 39,000  Level FlightAware ADS-B
Thu 01:32:03 PM 45.5540 -82.2390 140° Southeast 480 552 39,000  Level FlightAware ADS-B
Thu 01:32:47 PM 45.4820 -82.1550 141° Southeast 479 551 39,000  Level FlightAware ADS-B
Thu 01:33:25 PM 45.4140 -82.0750 140° Southeast 478 550 39,000  Level FlightAware ADS-B
Thu 01:34:09 PM 45.3380 -81.9860 141° Southeast 478 550 39,000 -409 Level FlightAware ADS-B
Thu 01:34:53 PM 45.2640 -81.9000 141° Southeast 473 544 38,400 -868 Descending FlightAware ADS-B
Thu 01:35:25 PM 45.2100 -81.8370 141° Southeast 470 541 37,900 -1,184 Descending FlightAware ADS-B
Thu 01:36:09 PM 45.1370 -81.7510 140° Southeast 469 540 36,900 -1,694 Descending FlightAware ADS-B
Thu 01:36:50 PM 45.0670 -81.6720 141° Southeast 463 533 35,500 -2,027 Descending FlightAware ADS-B
Thu 01:37:23 PM 45.0130 -81.6100 141° Southeast 455 524 34,400 -1,899 Descending FlightAware ADS-B
Thu 01:38:09 PM 44.9390 -81.5240 141° Southeast 447 514 33,000 -1,663 Descending FlightAware ADS-B
Thu 01:39:04 PM 44.8620 -81.4360 141° Southeast 442 509 31,600 -1,624 Descending FlightAware ADS-B
Thu 01:39:34 PM 44.8160 -81.3830 141° Southeast 441 507 30,700 -1,775 Descending FlightAware ADS-B
Thu 01:40:15 PM 44.7500 -81.3080 141° Southeast 437 503 29,500 -1,835 Descending FlightAware ADS-B
Thu 01:40:59 PM 44.6790 -81.2270 141° Southeast 426 490 28,100 -1,788 Descending FlightAware ADS-B
Thu 01:41:59 PM 44.5870 -81.1230 141° Southeast 411 473 26,400 -1,608 Descending FlightAware ADS-B
Thu 01:42:36 PM 44.5400 -81.0710 142° Southeast 403 464 25,500 -1,586 Descending FlightAware ADS-B
Thu 01:43:26 PM 44.4670 -80.9890 141° Southeast 390 449 24,100 -1,582 Descending FlightAware ADS-B
Thu 01:44:07 PM 44.4090 -80.9240 141° Southeast 385 443 23,100 -1,518 Descending FlightAware ADS-B
Thu 01:44:49 PM 44.3510 -80.8590 141° Southeast 380 437 22,000 -1,407 Descending FlightAware ADS-B
Thu 01:45:28 PM 44.3050 -80.8060 140° Southeast 374 430 21,200 -1,519 Descending FlightAware ADS-B
Thu 01:46:08 PM 44.2440 -80.7400 142° Southeast 365 420 20,000 -1,624 Descending FlightAware ADS-B
Thu 01:46:53 PM 44.1830 -80.6710 141° Southeast 364 419 18,900 -1,531 Descending FlightAware ADS-B
Thu 01:47:46 PM 44.1220 -80.5900 136° Southeast 371 427 17,500 -1,618 Descending FlightAware ADS-B
Thu 01:48:22 PM 44.0870 -80.5300 129° Southeast 374 430 16,500 -1,590 Descending FlightAware ADS-B
Thu 01:49:09 PM 44.0250 -80.4480 136° Southeast 358 412 15,300 -1,500 Descending FlightAware ADS-B
Thu 01:49:42 PM 43.9860 -80.3980 137° Southeast 349 402 14,500 -1,446 Descending FlightAware ADS-B
Thu 01:50:32 PM 43.9270 -80.3240 138° Southeast 337 388 13,300 -1,400 Descending FlightAware ADS-B
Thu 01:51:12 PM 43.8810 -80.2660 138° Southeast 329 379 12,400 -1,037 Descending FlightAware ADS-B
Thu 01:51:53 PM 43.8340 -80.2080 138° Southeast 320 368 11,900 -651 Descending FlightAware ADS-B
Thu 01:52:35 PM 43.7980 -80.1430 127° Southeast 337 388 11,500 -1,024 Descending FlightAware ADS-B
Thu 01:53:15 PM 43.7850 -80.0450 100° East 328 377 10,500 -1,286 Descending FlightAware ADS-B
Thu 01:53:45 PM 43.7770 -79.9840 100° East 315 362 10,000 -933 Descending FlightAware ADS-B
Thu 01:54:00 PM 43.7650 -79.9600 125° Southeast 305 351 9,800 -667 Descending FlightAware ADS-B
Thu 01:54:30 PM 43.7330 -79.9210 139° Southeast 297 342 9,500 -655 Descending FlightAware ADS-B
Thu 01:54:55 PM 43.7080 -79.8900 138° Southeast 296 341 9,200 -750 Descending FlightAware ADS-B
Thu 01:55:26 PM 43.6770 -79.8530 139° Southeast 293 337 8,800 -750 Descending FlightAware ADS-B
Thu 01:55:51 PM 43.6520 -79.8220 138° Southeast 289 333 8,500 -889 Descending FlightAware ADS-B
Thu 01:56:20 PM 43.6220 -79.7860 139° Southeast 277 319 8,000 -900 Descending FlightAware ADS-B
Thu 01:56:31 PM 43.6130 -79.7740 136° Southeast 273 314 7,900 -133 Descending FlightAware ADS-B
Thu 01:57:05 PM 43.5830 -79.7370 138° Southeast 251 289 7,900  Level FlightAware ADS-B
Thu 01:57:25 PM 43.5680 -79.7120 130° Southeast 246 283 7,900  Level FlightAware ADS-B
Thu 01:57:56 PM 43.5710 -79.6610 85° East 248 285 7,900  Level FlightAware ADS-B
Thu 01:58:11 PM 43.5760 -79.6390 73° East 250 288 7,900  Level FlightAware ADS-B
Thu 01:58:36 PM 43.5840 -79.6020 73° East 249 287 7,900 -400 Level FlightAware ADS-B
Thu 01:58:56 PM 43.5960 -79.5740 59° Northeast 246 283 7,600 -1,200 Descending FlightAware ADS-B
Thu 01:59:06 PM 43.6030 -79.5620 51° Northeast 247 284 7,300 -1,200 Descending FlightAware ADS-B
Thu 01:59:36 PM 43.6260 -79.5270 48° Northeast 247 284 6,800 -982 Descending FlightAware ADS-B
Thu 02:00:01 PM 43.6450 -79.4980 48° Northeast 244 281 6,400 -1,029 Descending FlightAware ADS-B
Thu 02:00:11 PM 43.6530 -79.4870 45° Northeast 242 278 6,200 -1,029 Descending FlightAware ADS-B
Thu 02:00:36 PM 43.6720 -79.4580 48° Northeast 242 278 5,800 -1,080 Descending FlightAware ADS-B
Thu 02:01:01 PM 43.6900 -79.4300 48° Northeast 244 281 5,300 -982 Descending FlightAware ADS-B
Thu 02:01:31 PM 43.7130 -79.3950 48° Northeast 243 280 4,900 -480 Descending FlightAware ADS-B
Thu 02:01:51 PM 43.7280 -79.3720 48° Northeast 240 276 4,900  Level FlightAware ADS-B
Thu 02:02:16 PM 43.7470 -79.3440 47° Northeast 242 278 4,900  Level FlightAware ADS-B
Thu 02:02:26 PM 43.7550 -79.3320 47° Northeast 242 278 4,900 -150 Level FlightAware ADS-B
Thu 02:02:56 PM 43.7770 -79.2970 49° Northeast 242 278 4,800 -500 Descending FlightAware ADS-B
Thu 02:03:26 PM 43.8000 -79.2630 47° Northeast 244 281 4,400 -800 Descending FlightAware ADS-B
Thu 02:03:41 PM 43.8130 -79.2490 38° Northeast 238 274 4,200 -800 Descending FlightAware ADS-B
Thu 02:03:56 PM 43.8290 -79.2440 13° North 232 267 4,000 -316 Descending FlightAware ADS-B
Thu 02:04:38 PM 43.8670 -79.2540 349° North 202 232 3,900 -327 Descending FlightAware ADS-B
Thu 02:04:51 PM 43.8770 -79.2670 317° Northwest 192 221 3,700 -692 Descending FlightAware ADS-B
Thu 02:05:30 PM 43.8720 -79.3090 261° West 183 211 3,300 -609 Descending FlightAware ADS-B
Thu 02:06:00 PM 43.8570 -79.3370 233° Southwest 183 211 3,000 -533 Descending FlightAware ADS-B
Thu 02:06:15 PM 43.8490 -79.3500 230° Southwest 180 207 2,900 -133 Descending FlightAware ADS-B
Thu 02:06:45 PM 43.8330 -79.3730 226° Southwest 165 190 2,900  Level FlightAware ADS-B
Thu 02:07:10 PM 43.8190 -79.3920 224° Southwest 165 190 2,900  Level FlightAware ADS-B
Thu 02:07:38 PM 43.8070 -79.4110 229° Southwest 159 183 2,900  Level FlightAware ADS-B
Thu 02:08:10 PM 43.7890 -79.4370 226° Southwest 159 183 2,900  Level FlightAware ADS-B
Thu 02:08:35 PM 43.7760 -79.4560 227° Southwest 159 183 2,900 -240 Level FlightAware ADS-B
Thu 02:09:00 PM 43.7630 -79.4750 227° Southwest 162 186 2,700 -655 Descending FlightAware ADS-B
Thu 02:09:30 PM 43.7480 -79.4970 227° Southwest 156 180 2,300 -800 Descending FlightAware ADS-B
Thu 02:09:45 PM 43.7420 -79.5060 227° Southwest 151 174 2,100 -750 Descending FlightAware ADS-B
Thu 02:10:10 PM 43.7290 -79.5250 227° Southwest 147 169 1,800 -764 Descending FlightAware ADS-B
Thu 02:10:40 PM 43.7160 -79.5440 227° Southwest 141 162 1,400 -698 Descending FlightAware ADS-B
Thu 02:11:36 PM 43.6900 -79.5810 226° Southwest 137 158 800 -485 Descending FlightAware ADS-B
Thu 02:12:19 PM 43.6667 -79.5833 226° Southwest 140 161 600 -279 Descending Toronto Center

Login

Don't have an account? Register now (free) for customized features, flight alerts, and more!